Time;durP1;ratioP1;P1;durP2;ratioP2;P2;SDS_P1;SDS_P2;PMS_P1;PMS_P2;Temp;Humidity;BMP_temperature;BMP_pressure;BME280_temperature;BME280_humidity;BME280_pressure;Samples;Min_cycle;Max_cycle;Signal;HPM_P1;HPM_P2
2023/03/11 00:00:57;;;;;;;;;1.00;1.00;;;;;1.72;88.19;98695.16;5098440;28;8834;-58
2023/03/11 00:03:26;;;;;;;;;3.00;3.00;;;;;1.70;88.34;98704.91;5098510;28;8813;-58
2023/03/11 00:05:54;;;;;;;;;0.60;0.60;;;;;1.73;88.48;98715.19;5098862;28;8841;-59
2023/03/11 00:08:22;;;;;;;;;0.40;0.00;;;;;1.72;88.35;98722.25;5098602;28;8840;-58
2023/03/11 00:10:50;;;;;;;;;0.40;0.40;;;;;1.70;88.26;98721.50;5098844;28;8863;-58
2023/03/11 00:13:18;;;;;;;;;1.80;1.80;;;;;1.70;88.72;98726.75;5098809;28;8916;-58
2023/03/11 00:15:47;;;;;;;;;2.20;2.20;;;;;1.71;88.75;98738.94;5098722;28;8818;-58
2023/03/11 00:18:14;;;;;;;;;1.00;1.00;;;;;1.71;88.60;98738.94;5098657;28;8832;-58
2023/03/11 00:20:42;;;;;;;;;0.00;0.00;;;;;1.72;88.11;98748.47;5098155;28;8829;-58
2023/03/11 00:23:10;;;;;;;;;0.40;0.40;;;;;1.71;88.02;98754.66;5098775;28;8837;-58
2023/03/11 00:25:38;;;;;;;;;1.00;1.00;;;;;1.72;88.59;98748.47;5098254;28;8834;-58
2023/03/11 00:28:06;;;;;;;;;0.60;0.60;;;;;1.70;87.99;98758.25;5098541;28;8906;-59
2023/03/11 00:30:34;;;;;;;;;1.00;1.00;;;;;1.71;88.49;98765.16;5098084;28;8824;-58
2023/03/11 00:33:02;;;;;;;;;1.00;1.00;;;;;1.71;88.57;98766.94;5098610;28;8842;-58
2023/03/11 00:35:29;;;;;;;;;1.00;0.80;;;;;1.70;88.44;98767.88;5098197;28;8852;-58
2023/03/11 00:37:57;;;;;;;;;0.00;0.00;;;;;1.71;88.59;98775.66;5098526;28;9502;-59
2023/03/11 00:40:25;;;;;;;;;1.80;1.00;;;;;1.71;87.85;98775.66;5098418;28;8844;-59
2023/03/11 00:42:53;;;;;;;;;0.40;0.00;;;;;1.68;87.91;98783.69;5098798;28;8837;-58
2023/03/11 00:45:21;;;;;;;;;3.00;1.80;;;;;1.70;87.91;98789.72;5098127;28;8841;-58
2023/03/11 00:47:49;;;;;;;;;0.00;0.00;;;;;1.71;88.36;98794.03;5097967;28;8818;-58
2023/03/11 00:50:17;;;;;;;;;0.60;0.60;;;;;1.72;88.25;98789.59;5098390;28;8834;-58
2023/03/11 00:52:45;;;;;;;;;1.00;1.00;;;;;1.72;88.75;98798.31;5097521;28;8863;-59
2023/03/11 00:55:13;;;;;;;;;0.00;0.00;;;;;1.72;88.09;98797.47;5097726;28;8858;-58
2023/03/11 00:57:40;;;;;;;;;0.00;0.00;;;;;1.71;88.47;98808.91;5097447;28;8847;-58
2023/03/11 01:00:10;;;;;;;;;1.00;0.00;;;;;1.71;88.13;98807.13;5098074;28;8822;-59
2023/03/11 01:02:38;;;;;;;;;1.00;1.00;;;;;1.71;87.83;98808.91;5098059;28;8848;-58
2023/03/11 01:05:06;;;;;;;;;0.00;0.00;;;;;1.71;88.50;98814.16;5097631;28;8896;-59
2023/03/11 01:07:34;;;;;;;;;1.00;1.00;;;;;1.70;88.46;98818.56;5094748;28;8906;-58
2023/03/11 01:10:02;;;;;;;;;0.80;0.80;;;;;1.70;88.36;98823.81;5077690;28;8855;-59
2023/03/11 01:12:29;;;;;;;;;0.60;0.00;;;;;1.72;88.41;98821.06;5077073;28;8836;-58
2023/03/11 01:14:57;;;;;;;;;1.00;1.00;;;;;1.69;87.88;98824.75;5077668;28;8825;-59
2023/03/11 01:17:25;;;;;;;;;1.00;1.00;;;;;1.68;88.25;98832.72;5092027;28;8814;-58
2023/03/11 01:19:52;;;;;;;;;0.00;0.00;;;;;1.65;88.28;98833.75;5097823;28;8834;-59
2023/03/11 01:22:20;;;;;;;;;0.80;0.60;;;;;1.66;87.70;98843.28;5097694;28;8838;-59
2023/03/11 01:24:48;;;;;;;;;0.00;0.00;;;;;1.65;87.98;98841.63;5097337;28;8818;-59
2023/03/11 01:27:16;;;;;;;;;1.80;1.80;;;;;1.65;88.26;98840.75;5082325;28;8855;-58
2023/03/11 01:29:43;;;;;;;;;0.80;0.80;;;;;1.65;88.60;98854.72;5076850;28;8828;-58
2023/03/11 01:32:11;;;;;;;;;1.00;1.00;;;;;1.66;87.81;98845.09;5077116;28;8812;-58
2023/03/11 01:34:39;;;;;;;;;0.00;0.00;;;;;1.65;88.14;98854.72;5076854;28;8828;-58
2023/03/11 01:37:06;;;;;;;;;1.00;0.60;;;;;1.65;87.75;98857.34;5089011;28;8907;-59
2023/03/11 01:39:34;;;;;;;;;0.80;0.00;;;;;1.66;87.72;98858.22;5097288;28;8829;-59
2023/03/11 01:42:02;;;;;;;;;0.00;0.00;;;;;1.64;88.27;98858.28;5097193;28;8927;-58
2023/03/11 01:44:29;;;;;;;;;0.00;0.00;;;;;1.64;88.38;98858.28;5097246;28;8899;-58
2023/03/11 01:46:58;;;;;;;;;0.40;0.00;;;;;1.65;88.16;98861.75;5086820;28;8821;-59
2023/03/11 01:49:26;;;;;;;;;0.00;0.00;;;;;1.65;88.02;98861.75;5076879;28;8864;-59
2023/03/11 01:51:55;;;;;;;;;0.00;0.00;;;;;1.64;88.10;98854.81;5077231;28;8840;-59
2023/03/11 01:54:22;;;;;;;;;1.40;1.00;;;;;1.62;88.34;98854.94;5086378;28;8802;-59
2023/03/11 01:56:50;;;;;;;;;0.60;0.00;;;;;1.63;87.85;98855.75;5097446;28;8833;-59
2023/03/11 01:59:18;;;;;;;;;0.60;0.60;;;;;1.61;88.23;98861.09;5097021;28;8880;-58
2023/03/11 02:01:46;;;;;;;;;0.00;0.00;;;;;1.62;87.67;98861.94;5096959;28;8868;-58
2023/03/11 02:04:14;;;;;;;;;0.00;0.00;;;;;1.61;88.14;98855.00;5095596;28;9534;-59
2023/03/11 02:06:41;;;;;;;;;1.00;1.00;;;;;1.61;87.79;98857.63;5096592;28;8907;-59
2023/03/11 02:09:09;;;;;;;;;1.00;1.00;;;;;1.61;88.15;98862.88;5096568;28;8814;-59
2023/03/11 02:11:37;;;;;;;;;3.00;1.80;;;;;1.59;87.78;98859.53;5096968;28;9535;-59
2023/03/11 02:14:05;;;;;;;;;1.00;1.00;;;;;1.58;88.12;98858.66;5096388;28;8860;-59
2023/03/11 02:16:33;;;;;;;;;1.00;1.00;;;;;1.57;88.10;98867.47;5096651;28;8882;-59
2023/03/11 02:19:00;;;;;;;;;0.00;0.00;;;;;1.58;88.11;98863.06;5096874;28;8821;-58
2023/03/11 02:21:28;;;;;;;;;1.40;1.00;;;;;1.58;88.07;98871.78;5096649;28;8822;-59
2023/03/11 02:23:55;;;;;;;;;1.00;1.00;;;;;1.58;88.04;98871.78;5096557;28;8829;-59
2023/03/11 02:26:23;;;;;;;;;0.00;0.00;;;;;1.57;88.11;98869.25;5096511;28;8830;-59
2023/03/11 02:28:51;;;;;;;;;0.00;0.00;;;;;1.58;87.89;98865.66;5096621;28;8834;-59
2023/03/11 02:31:19;;;;;;;;;0.80;0.80;;;;;1.57;88.38;98870.09;5096427;28;8830;-58
2023/03/11 02:33:46;;;;;;;;;0.20;0.20;;;;;1.54;87.70;98862.44;5096271;28;8967;-58
2023/03/11 02:36:14;;;;;;;;;1.00;1.00;;;;;1.52;88.11;98872.16;5095991;28;8860;-59
2023/03/11 02:38:42;;;;;;;;;1.00;1.00;;;;;1.49;88.03;98874.97;5096406;28;8833;-59
2023/03/11 02:41:10;;;;;;;;;1.00;0.00;;;;;1.47;87.87;98866.34;5096313;28;8817;-59
2023/03/11 02:43:38;;;;;;;;;1.20;0.40;;;;;1.45;88.31;98870.00;5096611;28;8841;-59
2023/03/11 02:46:05;;;;;;;;;0.80;0.80;;;;;1.46;88.25;98874.31;5096109;28;8848;-58
2023/03/11 02:48:33;;;;;;;;;1.00;1.00;;;;;1.44;88.09;98879.63;5095962;28;8854;-59
2023/03/11 02:51:01;;;;;;;;;0.80;0.80;;;;;1.43;88.46;98880.56;5096169;28;8826;-59
2023/03/11 02:53:29;;;;;;;;;0.00;0.00;;;;;1.43;87.99;98885.81;5095812;28;8823;-59
2023/03/11 02:55:56;;;;;;;;;3.00;2.60;;;;;1.45;87.85;98891.81;5095789;28;8833;-59
2023/03/11 02:58:24;;;;;;;;;2.40;1.60;;;;;1.44;88.42;98887.50;5096628;28;8850;-58
2023/03/11 03:00:51;;;;;;;;;0.80;0.80;;;;;1.44;87.85;98886.66;5096233;28;8922;-58
2023/03/11 03:03:19;;;;;;;;;1.00;1.00;;;;;1.45;87.91;98893.59;5095998;28;8826;-59
2023/03/11 03:05:47;;;;;;;;;2.20;1.00;;;;;1.44;88.57;98897.97;5075277;28;8824;-59
2023/03/11 03:08:15;;;;;;;;;0.20;0.20;;;;;1.45;88.48;98904.09;5075445;28;8860;-59
2023/03/11 03:10:42;;;;;;;;;0.00;0.00;;;;;1.46;87.97;98916.25;5075845;28;8832;-59
2023/03/11 03:13:10;;;;;;;;;1.00;1.00;;;;;1.47;87.99;98910.06;5075189;28;8816;-59
2023/03/11 03:15:37;;;;;;;;;1.00;1.00;;;;;1.46;88.62;98917.09;5096162;28;8810;-59
2023/03/11 03:18:06;;;;;;;;;0.00;0.00;;;;;1.45;87.50;98917.19;5100251;28;8833;-59
2023/03/11 03:20:34;;;;;;;;;1.00;0.00;;;;;1.45;88.01;98935.56;5099950;28;8806;-58
2023/03/11 03:23:01;;;;;;;;;0.00;0.00;;;;;1.44;87.72;98929.44;5100146;28;8860;-58
2023/03/11 03:25:29;;;;;;;;;1.00;1.00;;;;;1.46;87.30;98930.19;5082896;28;8813;-59
2023/03/11 03:27:56;;;;;;;;;0.80;0.80;;;;;1.47;87.50;98929.28;5079659;28;8844;-59
2023/03/11 03:30:24;;;;;;;;;0.20;0.20;;;;;1.49;87.73;98930.03;5079839;28;8851;-59
2023/03/11 03:32:52;;;;;;;;;1.00;1.00;;;;;1.48;88.13;98930.97;5079543;28;8946;-59
2023/03/11 03:35:20;;;;;;;;;1.80;1.80;;;;;1.51;87.99;98936.03;5094292;28;8850;-59
2023/03/11 03:37:47;;;;;;;;;1.00;1.00;;;;;1.51;87.59;98930.78;5099686;28;8837;-59
2023/03/11 03:40:15;;;;;;;;;0.20;0.20;;;;;1.51;87.68;98938.66;5099689;28;8875;-59
2023/03/11 03:42:43;;;;;;;;;0.60;0.60;;;;;1.50;87.48;98934.34;5100115;28;8814;-59
2023/03/11 03:45:11;;;;;;;;;1.00;1.00;;;;;1.51;87.68;98940.44;5085974;28;9791;-59
2023/03/11 03:47:39;;;;;;;;;1.40;1.00;;;;;1.51;87.45;98936.03;5079134;28;8840;-59
2023/03/11 03:50:06;;;;;;;;;3.00;1.00;;;;;1.52;87.55;98937.72;5079505;28;8824;-59
2023/03/11 03:52:34;;;;;;;;;3.00;3.00;;;;;1.51;87.64;98941.28;5087154;28;8813;-57
2023/03/11 03:55:02;;;;;;;;;1.00;1.00;;;;;1.51;87.91;98951.75;5059148;28;8830;-58
2023/03/11 03:57:30;;;;;;;;;0.40;0.40;;;;;1.52;87.14;98956.06;5060357;28;8857;-59
2023/03/11 03:59:57;;;;;;;;;1.80;1.80;;;;;1.53;87.73;98960.38;5079196;28;8828;-59
2023/03/11 04:02:25;;;;;;;;;3.00;3.00;;;;;1.53;88.07;98959.53;5085581;28;8821;-59
2023/03/11 04:04:53;;;;;;;;;1.00;1.00;;;;;1.51;87.71;98959.63;5098536;28;8836;-59
2023/03/11 04:07:21;;;;;;;;;3.00;2.20;;;;;1.51;87.25;98962.25;5099089;28;8837;-59
2023/03/11 04:09:48;;;;;;;;;1.80;1.80;;;;;1.50;87.70;98973.69;5098886;28;8845;-59
2023/03/11 04:12:17;;;;;;;;;1.00;1.00;;;;;1.50;88.14;98976.31;5099040;28;8895;-59
2023/03/11 04:14:44;;;;;;;;;1.00;1.00;;;;;1.49;88.01;98968.53;5098658;28;8819;-58
2023/03/11 04:17:12;;;;;;;;;1.00;1.00;;;;;1.47;87.94;98973.03;5099197;28;8822;-58
2023/03/11 04:19:40;;;;;;;;;1.80;1.80;;;;;1.45;87.96;98972.28;5098896;28;8911;-58
2023/03/11 04:22:08;;;;;;;;;4.00;4.00;;;;;1.43;87.36;98980.22;5098622;28;8836;-58
2023/03/11 04:24:36;;;;;;;;;3.00;3.00;;;;;1.42;88.08;98973.28;5098623;28;8848;-59
2023/03/11 04:27:03;;;;;;;;;2.60;2.60;;;;;1.40;87.90;98985.66;5098003;28;8821;-59
2023/03/11 04:29:31;;;;;;;;;2.60;0.60;;;;;1.39;87.62;98989.22;5098363;28;8849;-59
2023/03/11 04:31:59;;;;;;;;;2.60;1.00;;;;;1.38;87.96;98986.66;5098298;28;8837;-58
2023/03/11 04:34:27;;;;;;;;;1.80;1.00;;;;;1.38;87.56;98992.75;5098621;28;8876;-59
2023/03/11 04:36:54;;;;;;;;;3.00;1.00;;;;;1.37;87.82;98995.47;5099020;28;9557;-59
2023/03/11 04:39:22;;;;;;;;;1.00;1.00;;;;;1.37;87.83;98995.47;5098690;28;8810;-59
2023/03/11 04:41:49;;;;;;;;;1.80;1.80;;;;;1.37;87.49;98992.84;5098043;28;8846;-59
2023/03/11 04:44:17;;;;;;;;;1.40;0.80;;;;;1.35;88.02;99003.41;5098622;28;8893;-59
2023/03/11 04:46:46;;;;;;;;;1.00;0.00;;;;;1.35;88.20;99003.41;5098254;28;8836;-59
2023/03/11 04:49:14;;;;;;;;;1.00;1.00;;;;;1.33;87.48;99010.53;5098764;28;8833;-59
2023/03/11 04:51:42;;;;;;;;;2.20;2.20;;;;;1.33;87.85;99010.53;5098234;28;8837;-59
2023/03/11 04:54:09;;;;;;;;;1.00;1.00;;;;;1.32;88.30;99021.09;5096971;28;8848;-59
2023/03/11 04:56:37;;;;;;;;;1.20;1.20;;;;;1.29;87.62;99022.13;5098279;28;8825;-58
2023/03/11 04:59:05;;;;;;;;;0.60;0.60;;;;;1.30;87.81;99026.44;5098281;28;8830;-59
2023/03/11 05:01:33;;;;;;;;;1.00;1.00;;;;;1.29;87.79;99029.97;5098029;28;8826;-59
2023/03/11 05:04:00;;;;;;;;;2.60;1.00;;;;;1.28;88.07;99030.91;5079032;28;8820;-59
2023/03/11 05:06:28;;;;;;;;;1.80;1.00;;;;;1.25;87.84;99033.72;5077511;28;8836;-58
2023/03/11 05:08:57;;;;;;;;;1.00;1.00;;;;;1.24;87.46;99037.28;5077511;28;8847;-59
2023/03/11 05:11:25;;;;;;;;;1.00;1.00;;;;;1.22;87.69;99033.88;5077201;28;8845;-59
2023/03/11 05:13:53;;;;;;;;;3.00;3.00;;;;;1.22;88.17;99043.53;5094832;28;9499;-59
2023/03/11 05:16:20;;;;;;;;;1.00;1.00;;;;;1.20;87.85;99034.91;5097843;28;8842;-59
2023/03/11 05:18:48;;;;;;;;;0.20;0.20;;;;;1.18;87.91;99039.38;5098366;28;9476;-60
2023/03/11 05:21:16;;;;;;;;;3.40;3.40;;;;;1.17;87.69;99043.81;5097931;28;8829;-60
2023/03/11 05:23:44;;;;;;;;;1.00;0.40;;;;;1.15;87.78;99043.03;5081565;28;8812;-59
2023/03/11 05:26:12;;;;;;;;;1.00;1.00;;;;;1.13;88.11;99044.06;5077294;28;8843;-59
2023/03/11 05:28:39;;;;;;;;;2.60;2.60;;;;;1.11;87.82;99046.75;5076913;28;8868;-59
2023/03/11 05:31:07;;;;;;;;;2.40;2.40;;;;;1.07;87.92;99049.66;5077298;28;8832;-59
2023/03/11 05:33:35;;;;;;;;;1.00;1.00;;;;;1.06;87.98;99051.41;5091091;28;8814;-59
2023/03/11 05:36:02;;;;;;;;;1.80;1.80;;;;;1.04;88.02;99058.50;5097196;28;8891;-59
2023/03/11 05:38:30;;;;;;;;;0.20;0.00;;;;;1.04;87.75;99061.13;5096325;28;9005;-59
2023/03/11 05:40:57;;;;;;;;;0.40;0.00;;;;;1.06;87.76;99068.94;5096963;28;9508;-59
2023/03/11 05:43:25;;;;;;;;;0.00;0.00;;;;;1.07;87.79;99066.19;5084395;28;8829;-60
2023/03/11 05:45:53;;;;;;;;;0.20;0.20;;;;;1.08;87.81;99067.88;5076829;28;8855;-59
2023/03/11 05:48:20;;;;;;;;;0.80;0.00;;;;;1.09;87.45;99069.59;5076663;28;8832;-58
2023/03/11 05:50:48;;;;;;;;;0.00;0.00;;;;;1.10;87.78;99066.03;5076857;28;8848;-59
2023/03/11 05:53:16;;;;;;;;;1.00;1.00;;;;;1.12;88.07;99074.66;5095554;28;8810;-58
2023/03/11 05:55:44;;;;;;;;;1.00;1.00;;;;;1.12;87.66;99066.78;5096745;28;8832;-57
2023/03/11 05:58:11;;;;;;;;;0.00;0.00;;;;;1.15;88.08;99089.38;5096873;28;9499;-59
2023/03/11 06:00:39;;;;;;;;;0.20;0.20;;;;;1.15;87.64;99084.13;5096567;28;8845;-59
2023/03/11 06:03:07;;;;;;;;;1.00;1.00;;;;;1.16;87.67;99086.66;5095990;28;8822;-60
2023/03/11 06:05:34;;;;;;;;;0.20;0.00;;;;;1.17;87.52;99090.13;5096209;28;8845;-58
2023/03/11 06:08:02;;;;;;;;;1.00;1.00;;;;;1.18;87.31;99095.28;5096522;28;8821;-59
2023/03/11 06:10:30;;;;;;;;;1.00;1.00;;;;;1.19;87.65;99091.75;5095871;28;8854;-59
2023/03/11 06:12:57;;;;;;;;;0.00;0.00;;;;;1.20;87.25;99097.81;5095737;28;8883;-58
2023/03/11 06:15:25;;;;;;;;;0.00;0.00;;;;;1.19;87.70;99096.97;5096329;28;8861;-59
2023/03/11 06:17:53;;;;;;;;;0.60;0.00;;;;;1.18;87.70;99095.28;5095763;28;8836;-59
2023/03/11 06:20:21;;;;;;;;;1.00;1.00;;;;;1.19;87.79;99096.97;5095723;28;9549;-59
2023/03/11 06:22:49;;;;;;;;;0.80;0.80;;;;;1.21;87.55;99097.72;5095462;28;8908;-59
2023/03/11 06:25:16;;;;;;;;;2.20;2.20;;;;;1.21;87.48;99100.34;5095250;28;8833;-59
2023/03/11 06:27:44;;;;;;;;;0.80;0.80;;;;;1.22;87.03;99101.22;5095880;28;8842;-60
2023/03/11 06:30:12;;;;;;;;;1.00;0.80;;;;;1.22;88.09;99095.97;5096273;28;8826;-60
2023/03/11 06:32:40;;;;;;;;;0.00;0.00;;;;;1.22;87.41;99096.81;5095319;28;8820;-60
2023/03/11 06:35:08;;;;;;;;;0.80;0.80;;;;;1.22;87.35;99107.28;5095694;28;8979;-59
2023/03/11 06:37:37;;;;;;;;;0.20;0.20;;;;;1.24;87.40;99105.44;5095747;28;8841;-59
2023/03/11 06:40:06;;;;;;;;;1.40;1.40;;;;;1.27;87.70;99112.28;5095954;28;8829;-60
2023/03/11 06:42:35;;;;;;;;;1.40;1.00;;;;;1.27;87.66;99113.13;5095521;28;8818;-59
2023/03/11 06:45:02;;;;;;;;;3.00;3.00;;;;;1.27;87.53;99115.75;5095764;28;8841;-59
2023/03/11 06:47:30;;;;;;;;;0.80;0.80;;;;;1.26;87.54;99121.94;5095400;28;8872;-59
2023/03/11 06:49:58;;;;;;;;;1.40;1.00;;;;;1.23;87.52;99124.69;5095346;28;8837;-57
2023/03/11 06:52:26;;;;;;;;;1.80;1.80;;;;;1.22;87.04;99127.44;5095183;28;8859;-59
2023/03/11 06:54:53;;;;;;;;;0.20;0.20;;;;;1.20;87.17;99140.59;5095391;28;8833;-58
2023/03/11 06:57:21;;;;;;;;;0.00;0.00;;;;;1.22;87.10;99130.88;5095561;28;8868;-59
2023/03/11 06:59:50;;;;;;;;;3.20;3.00;;;;;1.26;87.30;99142.03;5090260;28;8936;-59
2023/03/11 07:02:18;;;;;;;;;1.00;0.00;;;;;1.29;87.11;99153.22;5075502;28;8846;-60
2023/03/11 07:04:45;;;;;;;;;2.20;2.20;;;;;1.33;86.98;99154.75;5076007;28;9486;-60
2023/03/11 07:07:13;;;;;;;;;1.80;1.00;;;;;1.41;87.14;99156.94;5075619;28;8839;-60
2023/03/11 07:09:41;;;;;;;;;1.00;1.00;;;;;1.47;87.33;99161.84;5079190;28;8896;-59
2023/03/11 07:12:09;;;;;;;;;1.00;1.00;;;;;1.49;86.56;99165.22;5096110;28;8826;-60
2023/03/11 07:14:36;;;;;;;;;0.00;0.00;;;;;1.51;87.07;99171.25;5095811;28;8825;-60
2023/03/11 07:17:04;;;;;;;;;1.80;1.80;;;;;1.47;86.75;99177.56;5096226;28;8833;-60
2023/03/11 07:19:32;;;;;;;;;0.00;0.00;;;;;1.42;86.88;99171.72;5094223;28;8876;-60
2023/03/11 07:22:00;;;;;;;;;1.40;1.40;;;;;1.39;87.12;99185.03;5075737;28;9537;-60
2023/03/11 07:24:28;;;;;;;;;1.40;1.00;;;;;1.35;86.99;99192.22;5075952;28;8836;-60
2023/03/11 07:26:56;;;;;;;;;0.80;0.80;;;;;1.32;86.93;99195.00;5075509;28;8836;-60
2023/03/11 07:29:23;;;;;;;;;3.00;1.00;;;;;1.30;87.10;99203.88;5077493;28;8853;-60
2023/03/11 07:31:51;;;;;;;;;1.00;0.20;;;;;1.34;86.94;99208.88;5095357;28;8951;-60
2023/03/11 07:34:19;;;;;;;;;0.00;0.00;;;;;1.40;87.11;99202.44;5095388;28;8834;-60
2023/03/11 07:36:47;;;;;;;;;1.00;0.00;;;;;1.48;87.37;99214.22;5094860;28;8836;-60
2023/03/11 07:39:14;;;;;;;;;0.40;0.40;;;;;1.62;86.93;99221.31;5094810;28;8872;-60
2023/03/11 07:41:42;;;;;;;;;1.00;1.00;;;;;1.75;86.44;99222.34;5054927;28;8953;-59
2023/03/11 07:44:10;;;;;;;;;1.80;1.80;;;;;1.89;86.82;99225.88;5055043;28;8974;-60
2023/03/11 07:46:38;;;;;;;;;0.60;0.60;;;;;2.05;86.16;99221.44;5054082;28;8826;-60
2023/03/11 07:49:06;;;;;;;;;1.00;1.00;;;;;2.25;86.30;99226.41;5079699;28;8806;-59
2023/03/11 07:51:34;;;;;;;;;0.00;0.00;;;;;2.47;86.31;99228.63;5094261;28;8856;-60
2023/03/11 07:54:01;;;;;;;;;0.00;0.00;;;;;2.64;86.10;99233.75;5094283;28;8869;-59
2023/03/11 07:56:29;;;;;;;;;1.00;1.00;;;;;2.75;85.67;99226.94;5094304;28;8861;-60
2023/03/11 07:58:57;;;;;;;;;1.00;1.00;;;;;2.82;85.44;99236.16;5094260;28;8857;-60
2023/03/11 08:01:25;;;;;;;;;1.00;0.80;;;;;2.96;85.52;99237.94;5095182;28;9523;-60
2023/03/11 08:03:55;;;;;;;;;0.00;0.00;;;;;3.12;85.70;99246.59;5098761;28;9543;-60
2023/03/11 08:06:24;;;;;;;;;3.00;1.40;;;;;3.21;85.34;99253.91;5097807;28;8840;-60
2023/03/11 08:08:51;;;;;;;;;0.00;0.00;;;;;3.24;84.71;99251.94;5097859;28;8825;-59
2023/03/11 08:11:19;;;;;;;;;0.00;0.00;;;;;3.23;85.37;99249.38;5098353;28;8845;-60
2023/03/11 08:13:47;;;;;;;;;0.00;0.00;;;;;3.21;84.67;99249.50;5099143;28;8839;-60
2023/03/11 08:16:15;;;;;;;;;0.80;0.80;;;;;3.20;85.22;99260.97;5098192;28;8841;-60
2023/03/11 08:18:43;;;;;;;;;0.00;0.00;;;;;3.24;84.67;99262.47;5097939;28;8810;-59
2023/03/11 08:21:10;;;;;;;;;1.00;1.00;;;;;3.33;85.35;99258.44;5096727;28;8830;-61
2023/03/11 08:23:38;;;;;;;;;0.60;0.60;;;;;3.51;85.37;99262.53;5096897;28;8922;-60
2023/03/11 08:26:06;;;;;;;;;0.40;0.40;;;;;3.64;84.77;99261.69;5097158;28;8846;-60
2023/03/11 08:28:34;;;;;;;;;0.20;0.20;;;;;3.71;84.72;99270.88;5096456;28;8822;-60
2023/03/11 08:31:02;;;;;;;;;1.00;1.00;;;;;3.81;84.49;99266.75;5096346;28;8850;-58
2023/03/11 08:33:29;;;;;;;;;0.80;0.80;;;;;3.92;84.07;99277.44;5096624;28;8838;-61
2023/03/11 08:35:57;;;;;;;;;0.00;0.00;;;;;3.99;83.91;99273.47;5097381;28;8826;-58
2023/03/11 08:38:25;;;;;;;;;0.00;0.00;;;;;4.02;84.43;99276.75;5096478;28;8821;-57
2023/03/11 08:40:53;;;;;;;;;0.00;0.00;;;;;3.99;83.85;99274.34;5096608;28;8968;-60
2023/03/11 08:43:21;;;;;;;;;0.00;0.00;;;;;4.01;84.01;99279.47;5098344;28;8845;-60
2023/03/11 08:45:49;;;;;;;;;0.20;0.20;;;;;4.23;83.88;99280.66;5097122;28;8864;-60
2023/03/11 08:48:17;;;;;;;;;2.60;1.80;;;;;4.57;83.29;99284.56;5096461;28;8825;-59
2023/03/11 08:50:45;;;;;;;;;0.00;0.00;;;;;4.88;82.72;99278.94;5096762;28;8839;-58
2023/03/11 08:53:20;;;;;;;;;0.00;0.00;;;;;5.13;82.67;99271.03;5097583;28;8838;-60
2023/03/11 08:55:48;;;;;;;;;0.00;0.00;;;;;5.35;82.17;99273.91;5097809;28;8931;-60
2023/03/11 08:58:16;;;;;;;;;0.00;0.00;;;;;5.57;82.02;99277.59;5096376;28;8963;-60
2023/03/11 09:00:44;;;;;;;;;0.00;0.00;;;;;5.79;82.03;99274.28;5096835;28;9498;-59
2023/03/11 09:03:12;;;;;;;;;0.40;0.40;;;;;5.88;81.34;99271.00;5096678;28;8833;-60
2023/03/11 09:05:40;;;;;;;;;0.00;0.00;;;;;5.87;81.62;99277.25;5095669;28;8871;-61
2023/03/11 09:08:08;;;;;;;;;0.60;0.00;;;;;5.84;81.18;99273.03;5095702;28;8841;-60
2023/03/11 09:10:36;;;;;;;;;0.00;0.00;;;;;5.82;81.91;99267.00;5094840;28;8813;-61
2023/03/11 09:13:04;;;;;;;;;1.00;1.00;;;;;5.82;82.01;99274.06;5095973;28;8833;-59
2023/03/11 09:15:32;;;;;;;;;0.00;0.00;;;;;5.77;82.00;99281.47;5095533;28;8844;-60
2023/03/11 09:18:00;;;;;;;;;1.00;1.00;;;;;5.67;82.31;99281.28;5095069;28;8871;-60
2023/03/11 09:20:27;;;;;;;;;1.80;1.00;;;;;5.65;82.16;99283.19;5094661;28;8810;-59
2023/03/11 09:22:55;;;;;;;;;0.40;0.40;;;;;5.67;81.69;99275.13;5095579;28;8957;-60
2023/03/11 09:25:23;;;;;;;;;0.80;0.80;;;;;5.75;81.43;99288.63;5095256;28;8829;-60
2023/03/11 09:27:51;;;;;;;;;0.20;0.20;;;;;5.69;81.78;99283.81;5094289;28;8834;-58
2023/03/11 09:30:19;;;;;;;;;0.00;0.00;;;;;5.71;81.40;99284.53;5094157;28;8848;-58
2023/03/11 09:32:47;;;;;;;;;0.00;0.00;;;;;5.79;81.22;99287.47;5094985;28;8844;-60
2023/03/11 09:35:14;;;;;;;;;0.00;0.00;;;;;5.97;80.85;99273.84;5095463;28;8858;-60
2023/03/11 09:37:42;;;;;;;;;0.00;0.00;;;;;6.27;80.62;99284.84;5095644;28;8830;-60
2023/03/11 09:40:10;;;;;;;;;0.00;0.00;;;;;6.36;79.80;99283.34;5094224;28;8842;-59
2023/03/11 09:42:38;;;;;;;;;0.00;0.00;;;;;6.13;79.75;99279.72;5093577;28;8817;-58
2023/03/11 09:45:06;;;;;;;;;0.00;0.00;;;;;5.91;80.23;99290.13;5092932;28;8836;-60
2023/03/11 09:47:34;;;;;;;;;0.00;0.00;;;;;5.72;80.19;99294.16;5093560;28;8830;-59
2023/03/11 09:50:03;;;;;;;;;0.00;0.00;;;;;5.56;80.83;99296.19;5092718;28;8838;-57
2023/03/11 09:52:31;;;;;;;;;0.00;0.00;;;;;5.40;80.45;99300.84;5091455;28;8979;-60
2023/03/11 09:55:01;;;;;;;;;0.00;0.00;;;;;5.20;81.28;99306.63;5092302;28;8841;-60
2023/03/11 09:57:29;;;;;;;;;1.00;1.00;;;;;5.02;81.46;99315.78;5092968;28;8833;-60
2023/03/11 09:59:57;;;;;;;;;1.40;1.00;;;;;4.92;81.64;99317.34;5093670;28;8853;-60
2023/03/11 10:02:26;;;;;;;;;0.00;0.00;;;;;4.86;81.96;99315.13;5089367;28;8820;-59
2023/03/11 10:04:54;;;;;;;;;0.00;0.00;;;;;4.88;81.72;99311.41;5074052;28;8839;-60
2023/03/11 10:07:23;;;;;;;;;0.00;0.00;;;;;5.08;81.95;99323.31;5074442;28;8839;-60
2023/03/11 10:09:51;;;;;;;;;0.00;0.00;;;;;5.67;81.34;99318.25;5074634;28;8828;-60
2023/03/11 10:12:18;;;;;;;;;0.20;0.20;;;;;6.50;80.05;99304.31;5076953;28;8863;-60
2023/03/11 10:14:46;;;;;;;;;0.00;0.00;;;;;7.34;79.00;99305.84;5095056;28;8834;-59
2023/03/11 10:17:15;;;;;;;;;0.00;0.00;;;;;8.21;77.68;99292.59;5095645;28;8826;-60
2023/03/11 10:19:43;;;;;;;;;0.00;0.00;;;;;8.63;76.31;99296.22;5095466;28;8865;-61
2023/03/11 10:22:12;;;;;;;;;5.50;4.00;;;;;8.31;76.59;99306.84;5093228;28;8842;-59
2023/03/11 10:24:40;;;;;;;;;0.00;0.00;;;;;7.90;76.92;99313.72;5073021;28;8963;-60
2023/03/11 10:27:07;;;;;;;;;0.00;0.00;;;;;7.89;77.56;99312.00;5086900;28;8852;-59
2023/03/11 10:29:36;;;;;;;;;0.00;0.00;;;;;8.90;75.64;99312.56;5092090;28;8834;-57
2023/03/11 10:32:04;;;;;;;;;0.00;0.00;;;;;9.99;73.44;99299.50;5091281;28;8862;-60
2023/03/11 10:34:32;;;;;;;;;0.00;0.00;;;;;10.80;71.43;99301.00;5090868;28;8868;-59
2023/03/11 10:37:00;;;;;;;;;2.00;1.50;;;;;11.80;69.62;99296.00;5078018;28;8812;-60
2023/03/11 10:39:29;;;;;;;;;0.00;0.00;;;;;12.40;68.22;99290.09;5071650;28;9779;-60
2023/03/11 10:41:56;;;;;;;;;0.00;0.00;;;;;12.68;67.47;99294.44;5071163;28;8844;-58
2023/03/11 10:44:24;;;;;;;;;0.00;0.00;;;;;13.04;66.62;99282.78;5092906;28;8834;-60
2023/03/11 10:46:52;;;;;;;;;0.00;0.00;;;;;13.57;66.35;99283.53;5081275;28;8823;-60
2023/03/11 10:49:19;;;;;;;;;0.00;0.00;;;;;14.10;66.03;99282.34;5072407;28;8838;-60
2023/03/11 10:51:47;;;;;;;;;0.00;0.00;;;;;14.69;64.83;99278.72;5071202;28;8868;-60
2023/03/11 10:54:16;;;;;;;;;0.00;0.00;;;;;15.40;64.12;99282.53;5071110;28;8844;-60
2023/03/11 10:56:44;;;;;;;;;2.50;0.00;;;;;15.84;62.81;99290.00;5081981;28;8822;-61
2023/03/11 10:59:12;;;;;;;;;0.00;0.00;;;;;15.93;62.98;99288.16;5092300;28;8865;-61
2023/03/11 11:01:40;;;;;;;;;1.00;1.00;;;;;15.19;64.07;99303.59;5092593;28;9817;-61
2023/03/11 11:04:07;;;;;;;;;3.00;2.50;;;;;13.98;65.67;99310.38;5093170;28;8868;-61
2023/03/11 11:06:35;;;;;;;;;0.00;0.00;;;;;12.70;68.50;99314.63;5093414;28;8842;-58
2023/03/11 11:09:03;;;;;;;;;1.00;1.00;;;;;11.48;70.75;99305.31;5092975;28;9859;-61
2023/03/11 11:11:31;;;;;;;;;0.00;0.00;;;;;10.50;72.12;99329.53;5092986;28;9728;-61
2023/03/11 11:13:59;;;;;;;;;0.00;0.00;;;;;9.74;73.65;99340.72;5093029;28;8857;-61
2023/03/11 11:16:27;;;;;;;;;1.00;1.00;;;;;9.16;74.89;99346.59;5093434;28;8837;-60
2023/03/11 11:18:55;;;;;;;;;0.00;0.00;;;;;8.84;75.46;99353.72;5093194;28;8849;-60
2023/03/11 11:21:23;;;;;;;;;0.25;0.25;;;;;9.64;74.47;99339.78;5093657;28;8855;-60
2023/03/11 11:23:51;;;;;;;;;1.00;0.00;;;;;10.67;71.93;99326.19;5093742;28;8853;-58
2023/03/11 11:26:20;;;;;;;;;0.00;0.00;;;;;11.56;70.21;99324.94;5093328;28;8830;-60
2023/03/11 11:28:48;;;;;;;;;0.00;0.00;;;;;12.12;69.34;99317.78;5094434;28;8976;-61
2023/03/11 11:31:16;;;;;;;;;0.00;0.00;;;;;11.65;68.87;99318.78;5092725;28;8843;-60
2023/03/11 11:33:44;;;;;;;;;0.00;0.00;;;;;10.73;70.79;99331.84;5092653;28;9552;-61
2023/03/11 11:36:12;;;;;;;;;0.00;0.00;;;;;9.93;72.63;99327.50;5094549;28;8829;-61
2023/03/11 11:38:40;;;;;;;;;0.00;0.00;;;;;9.33;73.96;99338.03;5096511;28;8901;-59
2023/03/11 11:41:08;;;;;;;;;0.00;0.00;;;;;9.27;73.63;99322.63;5096795;28;8820;-60
2023/03/11 11:43:36;;;;;;;;;0.00;0.00;;;;;10.00;73.00;99320.66;5097802;28;8841;-60
2023/03/11 11:46:05;;;;;;;;;0.00;0.00;;;;;10.94;70.63;99303.25;5097628;28;8860;-61
2023/03/11 11:48:33;;;;;;;;;0.00;0.00;;;;;11.74;68.64;99301.91;5098155;28;8833;-59
2023/03/11 11:51:01;;;;;;;;;0.00;0.00;;;;;12.40;66.94;99295.44;5098586;28;8929;-59